Time;durP1;ratioP1;P1;durP2;ratioP2;P2;SDS_P1;SDS_P2;PMS_P1;PMS_P2;Temp;Humidity;BMP_temperature;BMP_pressure;BME280_temperature;BME280_humidity;BME280_pressure;Samples;Min_cycle;Max_cycle;Signal;HPM_P1;HPM_P2
2022/09/20 00:01:17;;;;;;;2.47;1.50;;;12.70;92.90;;;13.23;60.44;99173.69;4969769;28;123248;-72
2022/09/20 00:03:46;;;;;;;4.67;2.00;;;12.80;93.00;;;13.24;60.14;99175.34;4966732;28;114604;-72
2022/09/20 00:06:19;;;;;;;4.20;1.80;;;13.10;93.00;;;13.27;60.34;99176.66;4973403;28;114079;-72
2022/09/20 00:08:47;;;;;;;4.20;2.43;;;12.80;92.80;;;13.27;60.15;99176.66;4968470;28;124317;-72
2022/09/20 00:11:20;;;;;;;5.73;2.03;;;12.80;92.80;;;13.28;59.72;99164.44;4971733;28;123948;-72
2022/09/20 00:13:49;;;;;;;2.53;1.70;;;12.80;92.70;;;13.25;59.91;99165.88;4982006;28;114240;-72
2022/09/20 00:16:23;;;;;;;2.87;1.83;;;12.80;92.70;;;13.26;60.04;99161.16;4979058;28;114024;-72
2022/09/20 00:18:52;;;;;;;2.60;1.60;;;12.80;92.90;;;13.26;59.64;99161.97;4981995;28;124122;-72
2022/09/20 00:21:23;;;;;;;3.60;1.67;;;12.80;92.60;;;13.29;59.61;99168.03;4977556;28;123051;-72
2022/09/20 00:23:51;;;;;;;3.00;1.47;;;12.80;92.60;;;13.26;59.48;99167.53;4976978;28;114151;-72
2022/09/20 00:26:18;;;;;;;3.80;2.00;;;12.90;92.50;;;13.26;59.63;99167.53;4982212;28;113965;-72
2022/09/20 00:28:45;;;;;;;3.80;1.73;;;12.80;92.50;;;13.24;59.66;99166.19;4978034;28;124056;-72
2022/09/20 00:31:13;;;;;;;5.73;2.00;;;12.90;92.40;;;13.22;59.16;99168.50;4979678;28;123571;-72
2022/09/20 00:36:28;;;;;;;2.97;1.67;;;12.80;92.30;;;13.19;59.46;99167.16;4984423;28;114372;-72
2022/09/20 00:38:59;;;;;;;2.70;1.70;;;12.80;92.40;;;13.18;59.68;99165.50;4991501;28;124189;-71
2022/09/20 00:41:27;;;;;;;6.03;1.70;;;12.70;92.40;;;13.19;59.78;99169.94;4984082;28;124373;-72
2022/09/20 00:43:54;;;;;;;5.53;1.90;;;12.70;92.50;;;13.21;59.85;99166.84;4983393;28;115698;-71
2022/09/20 00:46:33;;;;;;;4.13;1.97;;;12.70;92.50;;;13.22;59.86;99165.72;4988241;28;114927;-71
2022/09/20 00:49:27;;;;;;;2.53;1.87;;;12.80;92.60;;;13.19;59.96;99166.31;4981148;28;124441;-71
2022/09/20 00:51:59;;;;;;;2.83;2.03;;;12.70;92.50;;;13.16;59.67;99162.22;4988936;28;123982;-71
2022/09/20 00:54:27;;;;;;;2.23;1.63;;;12.70;92.50;;;13.12;59.65;99161.25;4973892;28;114763;-71
2022/09/20 00:56:54;;;;;;;2.27;1.40;;;12.70;92.40;;;13.13;59.75;99150.97;4984500;28;114792;-72
2022/09/20 00:59:32;;;;;;;2.80;1.93;;;12.70;92.50;;;13.14;59.81;99153.44;4985156;28;123848;-72
2022/09/20 01:02:12;;;;;;;2.77;1.53;;;12.70;92.50;;;13.15;60.06;99170.91;4978985;28;124247;-71
2022/09/20 01:04:41;;;;;;;3.60;1.80;;;12.70;92.50;;;13.13;59.78;99162.06;4990112;28;114530;-72
2022/09/20 01:07:13;;;;;;;2.47;1.40;;;12.70;92.50;;;13.14;60.21;99164.53;4993063;28;114813;-71
2022/09/20 01:09:39;;;;;;;3.37;1.87;;;12.70;92.60;;;13.14;60.09;99161.75;4991179;28;123598;-72
2022/09/20 01:12:15;;;;;;;3.67;1.80;;;12.70;92.90;;;13.13;60.21;99162.88;4976619;28;124301;-72
2022/09/20 01:14:43;;;;;;;3.77;2.00;;;12.70;92.70;;;13.12;60.37;99150.16;4984333;28;114036;-71
2022/09/20 01:17:11;;;;;;;3.93;1.90;;;12.70;92.80;;;13.13;60.62;99162.06;4985160;28;113725;-72
2022/09/20 01:20:08;;;;;;;3.10;2.03;;;12.70;92.80;;;13.13;60.16;99157.34;4988861;28;124354;-71
2022/09/20 01:22:38;;;;;;;3.97;1.77;;;12.70;92.90;;;13.11;60.38;99159.63;4976281;28;124392;-71
2022/09/20 01:25:13;;;;;;;5.67;1.73;;;12.70;92.80;;;13.11;60.17;99159.63;4986203;28;115349;-72
2022/09/20 01:27:44;;;;;;;2.50;1.70;;;12.60;92.80;;;13.13;60.04;99164.84;4986803;28;113124;-71
2022/09/20 01:30:40;;;;;;;3.40;2.07;;;12.60;92.70;;;13.13;60.02;99162.88;4975514;28;124002;-72
2022/09/20 01:33:37;;;;;;;3.27;1.80;;;12.70;92.70;;;13.16;59.82;99158.66;4978058;28;123838;-71
2022/09/20 01:36:05;;;;;;;3.63;1.60;;;12.70;92.60;;;13.16;59.92;99158.66;4989092;28;114948;-72
2022/09/20 01:39:05;;;;;;;3.47;1.50;;;12.70;92.60;;;13.17;59.82;99157.53;4989465;28;114740;-71
2022/09/20 01:41:42;;;;;;;3.53;1.77;;;12.70;92.70;;;13.16;59.91;99153.91;4982770;28;124466;-71
2022/09/20 01:44:26;;;;;;;2.30;1.47;;;12.70;92.60;;;13.16;60.08;99155.88;4982473;28;124159;-73
2022/09/20 01:47:03;;;;;;;5.90;1.83;;;12.70;92.60;;;13.16;59.80;99153.91;4977495;28;114284;-71
2022/09/20 01:49:59;;;;;;;2.40;1.53;;;12.70;92.60;;;13.16;59.89;99159.47;4985559;28;113743;-73
2022/09/20 01:53:04;;;;;;;5.23;1.63;;;12.70;92.60;;;13.14;59.92;99150.66;4989776;28;124884;-72
2022/09/20 01:55:42;;;;;;;5.47;1.80;;;12.70;92.60;;;13.15;60.20;99154.25;4978955;28;123812;-71
2022/09/20 01:58:55;;;;;;;5.03;1.83;;;12.70;92.70;;;13.11;59.97;99154.09;4989714;28;113458;-71
2022/09/20 02:01:58;;;;;;;2.70;1.50;;;12.70;92.70;;;13.11;60.28;99156.84;4989892;28;114000;-72
2022/09/20 02:05:20;;;;;;;2.50;1.33;;;12.70;92.70;;;13.09;60.07;99150.81;4979621;28;124583;-72
2022/09/20 02:08:01;;;;;;;2.30;1.87;;;12.60;92.70;;;13.10;60.20;99146.06;4981644;28;123971;-72
2022/09/20 02:10:37;;;;;;;3.97;1.50;;;12.60;92.70;;;13.11;60.09;99148.53;4984180;28;113354;-72
2022/09/20 02:13:39;;;;;;;5.10;1.67;;;12.70;92.80;;;13.12;60.27;99150.16;4977121;28;114896;-72
2022/09/20 02:16:43;;;;;;;4.17;1.90;;;12.70;92.80;;;13.11;60.24;99147.69;4980390;28;124075;-71
2022/09/20 02:19:31;;;;;;;3.53;1.60;;;12.70;92.80;;;13.09;60.24;99145.25;4982747;28;121947;-71
2022/09/20 02:22:15;;;;;;;2.87;1.93;;;12.60;92.70;;;13.09;60.07;99144.44;4982559;28;113919;-72
2022/09/20 02:25:19;;;;;;;4.37;1.33;;;12.60;92.70;;;13.07;60.11;99150.31;4986250;28;114067;-72
2022/09/20 02:28:15;;;;;;;3.33;1.43;;;12.60;92.60;;;13.07;60.03;99152.25;4979721;28;124271;-74
2022/09/20 02:31:11;;;;;;;4.00;1.30;;;12.60;92.60;;;13.06;60.21;99151.44;4983586;28;124101;-72
2022/09/20 02:34:00;;;;;;;2.03;1.30;;;12.60;92.70;;;13.08;60.28;99151.94;4975866;28;115321;-72
2022/09/20 02:36:49;;;;;;;3.80;1.53;;;12.60;92.70;;;13.10;60.42;99148.84;4974316;28;115025;-72
2022/09/20 02:40:12;;;;;;;5.10;1.60;;;12.60;92.70;;;13.10;60.22;99152.44;4979351;28;124220;-71
2022/09/20 02:42:59;;;;;;;2.60;1.30;;;12.70;92.80;;;13.13;60.03;99157.34;4947868;28;123174;-72
2022/09/20 02:46:04;;;;;;;2.60;1.70;;;12.70;92.80;;;13.12;60.25;99155.72;4984429;28;114075;-72
2022/09/20 02:48:50;;;;;;;3.33;2.00;;;12.70;92.80;;;13.14;60.01;99156.22;4989259;28;111792;-72
2022/09/20 02:51:54;;;;;;;6.00;1.70;;;12.70;92.80;;;13.12;59.77;99155.72;4987636;28;122856;-72
2022/09/20 02:54:57;;;;;;;2.43;1.90;;;12.70;92.60;;;13.12;59.75;99154.91;4968116;28;123875;-72
2022/09/20 02:57:54;;;;;;;2.97;1.80;;;12.70;92.50;;;13.10;59.61;99149.66;4983940;28;114256;-71
2022/09/20 03:00:27;;;;;;;3.17;1.53;;;12.70;92.50;;;13.12;59.68;99157.66;4971071;28;113771;-72
2022/09/20 03:03:23;;;;;;;4.60;2.37;;;12.60;92.40;;;13.14;59.38;99158.19;4980215;28;123765;-71
2022/09/20 03:06:14;;;;;;;3.33;1.73;;;12.60;92.30;;;13.12;59.36;99152.94;4994449;28;123285;-72
2022/09/20 03:08:57;;;;;;;3.10;1.80;;;12.70;92.30;;;13.11;59.29;99151.31;4974512;28;114197;-72
2022/09/20 03:11:48;;;;;;;4.50;1.43;;;12.70;92.20;;;13.12;59.15;99161.25;4969886;28;113120;-72
2022/09/20 03:14:33;;;;;;;6.13;1.60;;;12.60;92.20;;;13.12;59.34;99154.91;4989607;28;123322;-73
2022/09/20 03:17:20;;;;;;;3.20;1.50;;;12.70;92.20;;;13.12;59.07;99161.25;4981214;28;123645;-72
2022/09/20 03:20:07;;;;;;;3.70;1.70;;;12.70;92.20;;;13.11;59.18;99165.19;4984734;28;114357;-72
2022/09/20 03:23:06;;;;;;;2.50;1.60;;;12.70;92.30;;;13.12;59.36;99163.22;4988768;28;114290;-72
2022/09/20 03:25:53;;;;;;;2.63;1.33;;;12.80;92.40;;;13.12;59.51;99163.22;4986139;28;124003;-71
2022/09/20 03:29:02;;;;;;;3.40;1.90;;;12.80;92.40;;;13.11;59.36;99170.72;4986445;28;123992;-72
2022/09/20 03:31:57;;;;;;;2.70;1.50;;;12.70;92.40;;;13.11;59.70;99178.22;4978865;28;115337;-73
2022/09/20 03:34:57;;;;;;;3.17;1.83;;;12.60;92.30;;;13.11;59.46;99169.88;4983682;28;116779;-72
2022/09/20 03:37:35;;;;;;;1.97;1.30;;;12.60;92.30;;;13.10;59.46;99174.63;4985829;28;123919;-72
2022/09/20 03:40:16;;;;;;;2.43;1.50;;;12.60;92.40;;;13.12;59.49;99175.13;4986150;28;124037;-72
2022/09/20 03:42:48;;;;;;;5.67;1.73;;;12.60;92.40;;;13.14;59.67;99169.28;4987814;28;114322;-72
2022/09/20 03:45:22;;;;;;;3.97;1.73;;;12.70;92.40;;;13.16;59.61;99162.22;4987617;28;113911;-72
2022/09/20 03:48:09;;;;;;;3.80;1.70;;;12.70;92.40;;;13.17;59.37;99163.88;4982869;28;123978;-72
2022/09/20 03:50:46;;;;;;;2.03;1.43;;;12.70;92.40;;;13.19;59.47;99167.16;4982595;28;124051;-72
2022/09/20 03:54:02;;;;;;;1.73;1.37;;;12.70;92.40;;;13.18;59.56;99168.28;4986270;28;114319;-72
2022/09/20 03:57:10;;;;;;;2.77;1.37;;;12.70;92.40;;;13.19;59.42;99175.50;4988350;28;113953;-72
2022/09/20 03:59:56;;;;;;;5.50;1.93;;;12.70;92.40;;;13.18;59.21;99171.06;4989284;28;124740;-72
2022/09/20 04:03:01;;;;;;;2.83;1.80;;;12.70;92.30;;;13.20;59.26;99174.34;4986146;28;123649;-72
2022/09/20 04:06:33;;;;;;;2.13;1.57;;;12.80;92.40;;;13.22;59.34;99174.84;4990243;28;114530;-72
2022/09/20 04:09:45;;;;;;;5.00;1.50;;;12.70;92.30;;;13.22;59.34;99183.16;4989393;28;114274;-71
2022/09/20 04:13:08;;;;;;;1.93;1.60;;;14.70;93.10;;;13.20;59.00;99184.63;4971684;28;124133;-72
2022/09/20 04:16:18;;;;;;;2.20;1.50;;;12.70;92.10;;;13.17;58.93;99183.31;4983144;28;123726;-71
2022/09/20 04:19:25;;;;;;;8.40;1.83;;;12.70;92.00;;;13.14;58.82;99181.19;4987347;28;114169;-72
2022/09/20 04:22:00;;;;;;;2.17;1.50;;;12.70;92.00;;;13.15;58.80;99182.81;4997122;28;114444;-72
2022/09/20 04:24:29;;;;;;;3.70;1.70;;;12.70;91.90;;;13.15;58.66;99188.34;4977301;28;124075;-72
2022/09/20 04:27:33;;;;;;;3.93;1.77;;;12.70;91.90;;;13.16;58.53;99184.44;4982304;28;124331;-73
2022/09/20 04:30:18;;;;;;;3.87;1.63;;;12.70;91.90;;;13.19;58.65;99186.59;4978241;28;113996;-72
2022/09/20 04:33:10;;;;;;;4.80;1.50;;;12.70;91.90;;;13.21;58.62;99186.25;4983347;28;114904;-72
2022/09/20 04:36:31;;;;;;;4.57;1.67;;;12.80;92.30;;;13.22;58.67;99197.03;4978860;28;123779;-72
2022/09/20 04:39:22;;;;;;;3.00;1.50;;;12.70;91.90;;;13.23;58.63;99193.13;4973900;28;124321;-73
2022/09/20 04:42:16;;;;;;;5.00;1.50;;;12.80;92.00;;;13.19;59.00;99194.91;4985227;28;114885;-72
2022/09/20 04:45:21;;;;;;;2.60;1.70;;;12.70;92.00;;;13.16;59.26;99192.75;4983262;28;114136;-72
2022/09/20 04:48:10;;;;;;;2.90;2.03;;;12.70;92.10;;;13.12;59.51;99200.09;4986072;28;123492;-73
2022/09/20 04:51:14;;;;;;;6.63;1.50;;;12.70;92.30;;;13.08;60.02;99204.63;4989413;28;122668;-73
2022/09/20 04:54:10;;;;;;;4.03;2.07;;;12.70;92.50;;;13.05;60.18;99205.28;4973979;28;114324;-72
2022/09/20 04:57:23;;;;;;;3.30;1.90;;;12.60;92.50;;;12.99;60.52;99203.78;4975732;28;114445;-73
2022/09/20 05:00:07;;;;;;;3.67;1.57;;;12.60;92.60;;;12.96;60.91;99207.19;4982605;28;124594;-73
2022/09/20 05:03:30;;;;;;;7.33;1.90;;;12.60;92.80;;;12.91;61.12;99212.88;4983045;28;125284;-73
2022/09/20 05:06:32;;;;;;;2.30;1.47;;;12.60;92.90;;;12.89;61.27;99218.72;4988976;28;113305;-73
2022/09/20 05:09:27;;;;;;;3.90;1.93;;;12.60;93.00;;;12.92;61.47;99218.13;4990524;28;114109;-73
2022/09/20 05:12:11;;;;;;;3.63;1.40;;;12.50;93.10;;;12.92;61.43;99225.59;4981832;28;124099;-74
2022/09/20 05:15:00;;;;;;;8.47;2.03;;;12.50;93.20;;;12.91;61.42;99219.25;4985215;28;124073;-74
2022/09/20 05:17:51;;;;;;;6.67;1.93;;;12.60;93.30;;;12.92;61.69;99222.81;4984541;28;114754;-72
2022/09/20 05:21:03;;;;;;;5.10;1.70;;;12.50;93.30;;;12.91;61.53;99221.19;4969368;28;114224;-72
2022/09/20 05:23:45;;;;;;;3.40;1.67;;;12.60;93.40;;;12.90;61.85;99219.56;4986633;28;123077;-72
2022/09/20 05:26:30;;;;;;;6.30;2.10;;;12.60;93.40;;;12.91;61.72;99226.75;4969238;28;123761;-72
2022/09/20 05:29:33;;;;;;;2.43;1.50;;;12.50;93.40;;;12.91;61.74;99232.28;4985138;28;115267;-73
2022/09/20 05:33:04;;;;;;;7.33;3.37;;;12.50;93.40;;;12.93;61.83;99235.56;4981112;28;115366;-72
2022/09/20 05:35:47;;;;;;;4.70;1.80;;;12.50;93.50;;;12.92;61.57;99236.69;4982734;28;124667;-72
2022/09/20 05:38:39;;;;;;;7.50;2.20;;;12.50;93.50;;;12.92;61.65;99233.91;4983612;28;123638;-72
2022/09/20 05:41:18;;;;;;;2.13;1.43;;;12.50;93.50;;;12.93;61.78;99230.03;4980883;28;114817;-71
2022/09/20 05:44:41;;;;;;;3.03;1.77;;;12.50;93.50;;;12.90;61.58;99236.22;4971744;28;113239;-72
2022/09/20 05:47:39;;;;;;;4.93;2.03;;;12.50;93.50;;;12.86;61.74;99235.19;4934025;28;124033;-72
2022/09/20 05:50:35;;;;;;;5.53;1.93;;;12.40;93.40;;;12.83;61.84;99237.47;4982103;28;123196;-71
2022/09/20 05:53:53;;;;;;;2.20;1.63;;;12.40;93.50;;;12.82;61.69;99241.38;4982950;28;113551;-71
2022/09/20 05:56:46;;;;;;;5.70;2.10;;;12.40;93.50;;;12.82;61.84;99244.16;4984796;28;113981;-71
2022/09/20 05:59:41;;;;;;;1.97;1.60;;;12.40;93.50;;;12.82;61.74;99252.47;4982858;28;124490;-71
2022/09/20 06:02:37;;;;;;;5.87;2.00;;;12.40;93.50;;;12.78;61.74;99257.00;4977179;28;124247;-73
2022/09/20 06:05:13;;;;;;;6.63;2.10;;;12.40;93.50;;;12.78;62.05;99257.00;4969600;28;114722;-73
2022/09/20 06:08:03;;;;;;;4.37;1.80;;;12.40;93.50;;;12.77;62.06;99263.69;4978677;28;114019;-71
2022/09/20 06:10:32;;;;;;;4.47;2.03;;;12.40;93.60;;;12.77;61.89;99258.16;4985273;28;124178;-72
2022/09/20 06:13:44;;;;;;;11.40;2.23;;;12.40;93.60;;;12.74;62.14;99250.47;4983044;28;123820;-72
2022/09/20 06:16:24;;;;;;;6.23;2.07;;;12.40;93.60;;;12.76;62.13;99256.53;4947961;28;114249;-72
2022/09/20 06:19:28;;;;;;;4.37;2.27;;;12.30;93.70;;;12.78;62.30;99256.19;4944736;28;114123;-72
2022/09/20 06:22:02;;;;;;;6.00;2.20;;;12.40;93.80;;;12.81;62.49;99261.94;4972727;28;124192;-72
2022/09/20 06:24:54;;;;;;;5.67;2.60;;;12.40;93.80;;;12.86;62.15;99263.75;4981033;28;123804;-72
2022/09/20 06:27:32;;;;;;;3.50;1.90;;;12.40;93.90;;;12.89;61.94;99252.00;4975813;28;115263;-72
2022/09/20 06:30:04;;;;;;;6.47;2.23;;;12.40;93.80;;;12.92;62.34;99258.88;4968908;28;115172;-73
2022/09/20 06:32:33;;;;;;;5.27;2.47;;;12.40;93.90;;;12.95;62.22;99256.31;4971315;28;124599;-72
2022/09/20 06:35:03;;;;;;;4.60;2.13;;;12.50;93.90;;;13.02;62.25;99255.84;4973717;28;124472;-73
2022/09/20 06:41:27;;;;;;;6.37;2.13;;;12.50;93.90;;;13.19;61.79;99267.06;4981304;28;114732;-73
2022/09/20 06:43:47;;;;;;;4.90;1.90;;;12.60;93.90;;;13.25;61.59;99271.31;4987560;28;123984;-72
2022/09/20 06:46:14;;;;;;;1.93;1.70;;;12.70;93.80;;;13.29;61.54;99276.25;4984376;28;124163;-72
2022/09/20 06:48:41;;;;;;;3.83;1.70;;;14.00;94.30;;;13.30;61.51;99273.19;4983806;28;114228;-72
2022/09/20 06:51:11;;;;;;;6.63;1.93;;;12.80;93.70;;;13.30;61.20;99275.13;4971645;28;113978;-72
2022/09/20 06:53:40;;;;;;;4.50;1.87;;;14.60;94.40;;;13.34;61.32;99278.91;4984153;28;125702;-72
2022/09/20 06:56:18;;;;;;;7.83;2.20;;;12.80;93.60;;;13.44;61.16;99281.41;4979090;28;123702;-72
2022/09/20 06:58:45;;;;;;;3.87;1.93;;;12.90;93.70;;;13.52;60.86;99285.38;4984240;28;114397;-72
2022/09/20 07:01:12;;;;;;;3.43;1.73;;;12.90;93.60;;;13.60;60.68;99276.25;5002621;28;113119;-73
2022/09/20 07:03:40;;;;;;;7.23;2.20;;;13.00;93.60;;;13.66;60.58;99278.53;4982828;28;125132;-73
2022/09/20 07:06:08;;;;;;;4.20;1.73;;;13.10;93.50;;;13.74;60.34;99288.06;4983552;28;123022;-73
2022/09/20 07:08:35;;;;;;;8.10;2.40;;;13.20;93.50;;;13.83;60.10;99285.28;4969296;28;113879;-72
2022/09/20 07:11:09;;;;;;;3.97;1.90;;;13.20;93.40;;;13.90;59.87;99285.66;4983840;28;113534;-71
2022/09/20 07:13:35;;;;;;;5.10;1.90;;;13.30;93.40;;;13.98;59.85;99287.63;4985445;28;123367;-72
2022/09/20 07:16:06;;;;;;;8.20;2.10;;;13.30;93.30;;;14.04;59.51;99285.53;4983782;28;123546;-71
2022/09/20 07:18:32;;;;;;;6.23;2.30;;;13.40;93.20;;;14.02;59.44;99287.78;4983215;28;115244;-74
2022/09/20 07:21:00;;;;;;;7.83;2.30;;;13.40;93.00;;;13.96;59.75;99292.69;4982712;28;115145;-73
2022/09/20 07:23:28;;;;;;;7.17;1.80;;;13.40;93.00;;;14.00;59.62;99290.91;4979085;28;123812;-72
2022/09/20 07:26:00;;;;;;;5.53;2.50;;;13.40;93.10;;;14.03;59.69;99295.81;4982214;28;124011;-72
2022/09/20 07:28:28;;;;;;;6.13;2.40;;;13.50;93.10;;;14.04;59.48;99300.22;4982818;28;114243;-71
2022/09/20 07:30:55;;;;;;;7.20;2.33;;;13.50;92.90;;;14.02;59.38;99299.72;4974053;28;114079;-72
2022/09/20 07:33:23;;;;;;;6.30;2.07;;;14.30;93.20;;;14.01;59.60;99303.66;4979435;28;124083;-72
2022/09/20 07:35:54;;;;;;;5.90;2.20;;;14.80;93.40;;;14.07;59.41;99301.53;4984677;28;123627;-72
2022/09/20 07:38:22;;;;;;;4.43;2.27;;;13.80;93.00;;;14.15;59.15;99293.22;4955764;28;115037;-72
2022/09/20 07:40:59;;;;;;;5.13;2.17;;;13.60;92.90;;;14.28;59.00;99290.63;4982393;28;113936;-71
2022/09/20 07:43:28;;;;;;;6.70;2.10;;;13.70;92.80;;;14.34;58.54;99295.69;4981053;28;124334;-72
2022/09/20 07:45:58;;;;;;;6.50;2.17;;;14.20;92.80;;;14.33;58.50;99296.84;4981194;28;123970;-72
2022/09/20 07:48:28;;;;;;;9.83;2.83;;;13.80;92.50;;;14.38;58.58;99300.63;4987988;28;115314;-73
2022/09/20 07:51:07;;;;;;;8.60;2.47;;;13.70;92.50;;;14.46;58.25;99305.38;4966558;28;113924;-75
2022/09/20 07:53:34;;;;;;;4.63;2.40;;;13.90;92.50;;;14.54;58.30;99299.84;4976529;28;124003;-72
2022/09/20 07:56:03;;;;;;;4.47;2.07;;;13.90;92.60;;;14.64;57.99;99309.84;4989150;28;122556;-73
2022/09/20 07:58:32;;;;;;;7.47;2.63;;;13.90;92.50;;;14.74;57.70;99303.91;4986406;28;114455;-71
2022/09/20 08:01:03;;;;;;;5.60;2.20;;;14.10;92.40;;;14.82;57.04;99307.84;4985733;28;113889;-72
2022/09/20 08:03:31;;;;;;;3.83;2.00;;;14.10;92.00;;;14.86;56.74;99311.63;4986129;28;123925;-72
2022/09/20 08:06:15;;;;;;;8.90;1.87;;;14.20;91.80;;;14.86;56.34;99319.97;4982412;28;124205;-72
2022/09/20 08:08:42;;;;;;;11.20;2.27;;;14.20;91.60;;;14.84;56.31;99313.91;4988176;28;115530;-72
2022/09/20 08:11:15;;;;;;;7.80;2.43;;;14.20;91.50;;;14.82;55.99;99316.19;4987189;28;114949;-72
2022/09/20 08:13:45;;;;;;;6.03;2.00;;;14.20;91.20;;;14.80;55.58;99318.47;4988024;28;124052;-72
2022/09/20 08:16:13;;;;;;;3.37;1.87;;;14.20;91.30;;;14.82;55.95;99332.06;4984304;28;124420;-72
2022/09/20 08:19:06;;;;;;;3.63;1.73;;;14.30;91.10;;;14.87;55.74;99329.94;4969296;28;114443;-72
2022/09/20 08:21:34;;;;;;;5.60;2.17;;;14.30;90.90;;;14.87;55.36;99335.50;4983504;28;114161;-72
2022/09/20 08:24:02;;;;;;;8.00;1.80;;;14.30;90.70;;;14.91;55.02;99321.75;4970750;28;122866;-71
2022/09/20 08:26:30;;;;;;;6.57;2.00;;;14.30;90.70;;;14.93;54.75;99320.28;4984588;28;123908;-71
2022/09/20 08:28:59;;;;;;;6.10;2.13;;;14.40;90.40;;;14.97;54.61;99329.63;4988949;28;114357;-71
2022/09/20 08:31:33;;;;;;;6.97;1.97;;;14.40;90.40;;;15.08;54.38;99329.28;4984428;28;113990;-72
2022/09/20 08:34:03;;;;;;;8.70;2.93;;;14.50;90.40;;;15.12;53.67;99319.09;4977635;28;124269;-71
2022/09/20 08:36:32;;;;;;;5.30;2.57;;;14.50;90.00;;;15.11;52.74;99325.84;4956925;28;124099;-71
2022/09/20 08:38:58;;;;;;;11.93;2.70;;;14.50;88.60;;;15.11;52.48;99326.66;4986510;28;113942;-72
2022/09/20 08:41:38;;;;;;;9.60;1.97;;;14.50;88.10;;;15.17;52.69;99332.84;4983680;28;114144;-71
2022/09/20 08:44:24;;;;;;;4.53;2.30;;;14.50;88.60;;;15.22;52.83;99327.94;4980948;28;124042;-72
2022/09/20 08:47:04;;;;;;;5.33;1.90;;;14.50;88.80;;;15.24;53.13;99322.03;4983843;28;123489;-72
2022/09/20 08:49:32;;;;;;;6.00;1.70;;;13.10;87.50;;;15.25;53.28;99324.47;4981309;28;114364;-72
2022/09/20 08:52:01;;;;;;;6.23;2.00;;;14.70;89.80;;;15.28;53.13;99328.56;4986940;28;114315;-72
2022/09/20 08:54:32;;;;;;;5.57;1.83;;;14.70;88.90;;;15.28;53.09;99328.56;4983257;28;123191;-72
2022/09/20 08:57:04;;;;;;;6.20;1.60;;;14.70;88.70;;;15.30;52.87;99326.28;4974169;28;123702;-72
2022/09/20 08:59:31;;;;;;;5.03;2.10;;;14.80;88.70;;;15.31;52.72;99321.53;4974606;28;114801;-73
2022/09/20 09:01:58;;;;;;;7.30;2.67;;;14.80;88.30;;;15.25;51.83;99318.09;4987591;28;114646;-72
2022/09/20 09:04:35;;;;;;;12.00;2.20;;;14.70;86.60;;;15.25;51.70;99324.47;4969034;28;124105;-72
2022/09/20 09:07:02;;;;;;;5.23;2.00;;;14.70;86.60;;;15.28;51.53;99320.22;4983734;28;124289;-72
2022/09/20 09:09:31;;;;;;;4.90;1.63;;;14.70;86.60;;;15.31;51.41;99315.97;4985537;28;114673;-72
2022/09/20 09:11:58;;;;;;;8.60;1.77;;;14.80;86.30;;;15.34;51.45;99330.06;4984647;28;114019;-71
2022/09/20 09:14:47;;;;;;;4.93;1.60;;;14.80;87.00;;;15.35;51.01;99322.50;4968284;28;123865;-71
2022/09/20 09:17:26;;;;;;;8.00;1.43;;;14.90;85.90;;;15.31;51.18;99324.31;4987789;28;123832;-71
2022/09/20 09:20:16;;;;;;;3.73;1.83;;;14.90;85.90;;;15.28;51.40;99319.41;4972991;28;113743;-72
2022/09/20 09:22:44;;;;;;;4.13;1.70;;;14.80;85.80;;;15.28;51.35;99317.44;4986432;28;114036;-71
2022/09/20 09:25:15;;;;;;;3.00;1.40;;;15.20;86.20;;;15.31;51.51;99318.75;4958452;28;123440;-72
2022/09/20 09:27:57;;;;;;;7.53;1.97;;;14.80;85.90;;;15.33;51.61;99322.84;4985205;28;124581;-72
2022/09/20 09:30:35;;;;;;;4.90;2.23;;;15.00;86.10;;;15.32;51.70;99323.19;4974690;28;114429;-72
2022/09/20 09:33:19;;;;;;;10.27;2.10;;;14.90;86.20;;;15.31;51.74;99316.78;4970539;28;113763;-71
2022/09/20 09:36:04;;;;;;;4.77;2.00;;;14.90;86.10;;;15.30;51.87;99315.16;4983928;28;124069;-71
2022/09/20 09:38:37;;;;;;;6.87;1.90;;;14.80;86.20;;;15.34;51.89;99320.84;4984924;28;124485;-71
2022/09/20 09:41:28;;;;;;;5.40;1.70;;;14.90;86.50;;;15.35;51.74;99320.53;4987673;28;114336;-71
2022/09/20 09:44:20;;;;;;;2.70;1.47;;;16.60;88.10;;;15.38;51.68;99305.94;4984526;28;114197;-71
2022/09/20 09:46:49;;;;;;;5.87;1.70;;;14.90;86.30;;;15.41;51.66;99302.50;4985894;28;124070;-70
2022/09/20 09:49:18;;;;;;;6.13;1.63;;;14.90;86.20;;;15.46;51.69;99301.50;4974928;28;123707;-72
2022/09/20 09:52:14;;;;;;;6.57;1.90;;;15.20;86.40;;;15.42;50.21;99306.94;4984346;28;115233;-71
2022/09/20 09:54:54;;;;;;;4.90;1.97;;;14.90;84.20;;;15.35;49.79;99314.97;4985182;28;113765;-71
2022/09/20 09:57:52;;;;;;;5.30;1.97;;;14.80;83.80;;;15.32;49.58;99312.84;4955857;28;124888;-71
2022/09/20 10:00:22;;;;;;;5.30;1.97;;;14.90;83.70;;;15.33;50.08;99319.25;4984207;28;123865;-72
2022/09/20 10:03:06;;;;;;;2.57;1.60;;;14.80;84.10;;;15.35;50.07;99319.72;4965382;28;113404;-72
2022/09/20 10:06:00;;;;;;;2.40;1.50;;;14.80;83.70;;;15.40;50.06;99314.81;4985664;28;113819;-72
2022/09/20 10:08:42;;;;;;;6.10;1.60;;;14.90;84.00;;;15.43;49.55;99311.34;4988238;28;123245;-74
2022/09/20 10:11:29;;;;;;;2.83;1.73;;;14.90;83.30;;;15.49;49.35;99311.16;4968880;28;123905;-73
2022/09/20 10:14:10;;;;;;;3.40;1.80;;;14.90;83.30;;;15.53;49.48;99312.13;4987845;28;113835;-72
2022/09/20 10:17:14;;;;;;;7.53;2.00;;;14.90;83.10;;;15.60;49.69;99313.25;4982419;28;114048;-72
2022/09/20 10:20:05;;;;;;;5.33;2.10;;;15.10;83.50;;;15.72;49.25;99309.81;4968190;28;122937;-72
2022/09/20 10:23:00;;;;;;;7.17;1.60;;;15.10;83.20;;;15.73;48.86;99317.00;4984038;28;122899;-71
2022/09/20 10:25:48;;;;;;;2.37;1.50;;;15.20;82.30;;;15.72;48.66;99303.44;4983981;28;114361;-70
2022/09/20 10:28:52;;;;;;;3.93;1.50;;;15.20;81.70;;;15.68;48.73;99295.72;4985695;28;113198;-72
2022/09/20 10:31:55;;;;;;;4.00;1.17;;;15.20;81.70;;;15.75;48.86;99309.13;4986774;28;124136;-71
2022/09/20 10:34:46;;;;;;;4.33;1.70;;;15.30;81.90;;;15.81;48.38;99296.66;4982690;28;125009;-71
2022/09/20 10:37:32;;;;;;;6.13;2.00;;;15.30;81.60;;;15.89;48.24;99300.53;4979985;28;114268;-71
2022/09/20 10:43:13;;;;;;;6.20;1.80;;;15.60;81.70;;;15.98;48.47;99295.72;4985461;28;114438;-71
2022/09/20 10:43:40;;;;;;;3.40;1.80;;;15.40;81.60;;;16.00;47.89;99299.00;4983360;28;124869;-72
2022/09/20 10:46:16;;;;;;;7.17;1.70;;;15.50;81.20;;;16.01;47.39;99299.81;4987489;28;123556;-71
2022/09/20 10:48:52;;;;;;;5.73;1.60;;;15.50;80.20;;;15.99;47.20;99291.00;4981881;28;115079;-71
2022/09/20 10:51:39;;;;;;;6.10;1.47;;;15.50;79.70;;;15.97;46.64;99301.66;4968770;28;114900;-71
2022/09/20 10:54:19;;;;;;;4.40;1.60;;;15.50;78.90;;;15.95;45.67;99293.63;4985069;28;124123;-70
2022/09/20 10:56:51;;;;;;;5.33;1.37;;;15.50;77.40;;;15.94;45.73;99308.72;4987794;28;123657;-70
2022/09/20 10:59:52;;;;;;;5.67;1.50;;;15.50;77.50;;;15.90;45.81;99299.38;4983367;28;114468;-70
2022/09/20 11:02:50;;;;;;;4.40;2.27;;;15.50;77.00;;;15.89;45.63;99297.75;4985886;28;112964;-71
2022/09/20 11:05:53;;;;;;;2.27;1.30;;;15.50;76.90;;;15.94;46.05;99293.97;4984326;28;124680;-71
2022/09/20 11:08:26;;;;;;;2.90;1.30;;;15.50;77.40;;;16.02;46.07;99307.03;4982518;28;123941;-71
2022/09/20 11:11:21;;;;;;;5.87;1.87;;;15.50;77.60;;;16.06;45.95;99303.22;4984431;28;114343;-71
2022/09/20 11:14:03;;;;;;;9.67;1.93;;;15.60;77.10;;;16.12;45.41;99289.94;4988935;28;114665;-71
2022/09/20 11:16:38;;;;;;;6.17;1.67;;;15.60;77.10;;;16.19;45.22;99294.97;4982015;28;124216;-71
2022/09/20 11:19:47;;;;;;;3.60;1.70;;;15.70;76.50;;;16.30;45.33;99288.63;4985346;28;123957;-72
2022/09/20 11:22:33;;;;;;;3.53;1.60;;;15.80;76.70;;;16.42;45.12;99295.47;4975868;28;114226;-71
2022/09/20 11:25:05;;;;;;;3.30;1.30;;;15.80;76.50;;;16.54;45.34;99290.75;4981244;28;114580;-71
2022/09/20 11:27:39;;;;;;;1.87;1.30;;;16.00;77.00;;;16.71;45.00;99289.81;4984832;28;124945;-70